Delphos, Iowa
Current Conditions -  °F | °C
As of 1:53 PM on Thursday 29 Jan 2015 (Local Time) from KLWD Reporting Station
Overcast Overcast  
Wind Chill: 26°   Ceiling: 2400
Heat Index: 37°   Visibility: 10mi
Dew Point: 26°   Wind: 22mph
Humidity: 65%   Direction: 340°NNW
Pressure: 30.31"   Gusts: 28mph
Location:  40.6052°N, 94.3576°W
Report Text: KLWD 291953Z AUTO 34019G24KT 10SM OVC024 03/M03 A3031 RMK AO2 PK WND 33031/1905 SLP274 T00281033
Loading
Personal Weather Stations






























Interactive Weather Map New forecast layout! Learn more

10-Day Weather Forecast

Advertisements
Track Severe Weather on mobile